Time;durP1;ratioP1;P1;durP2;ratioP2;P2;SDS_P1;SDS_P2;PMS_P1;PMS_P2;Temp;Humidity;BMP_temperature;BMP_pressure;BME280_temperature;BME280_humidity;BME280_pressure;Samples;Min_cycle;Max_cycle;Signal;HPM_P1;HPM_P2
2023/06/04 00:00:40;;;;;;;3.55;1.48;;;;;;;13.00;100.00;102038.16;5245391;28;20020;-70
2023/06/04 00:03:11;;;;;;;3.25;1.23;;;;;;;12.93;100.00;102037.94;5245005;28;20067;-70
2023/06/04 00:05:41;;;;;;;4.15;1.40;;;;;;;12.92;100.00;102036.25;5237769;28;20112;-71
2023/06/04 00:08:12;;;;;;;3.60;1.65;;;;;;;12.87;100.00;102025.09;5239008;28;20170;-70
2023/06/04 00:10:42;;;;;;;9.70;1.60;;;;;;;12.84;100.00;102022.69;5245318;28;20024;-70
2023/06/04 00:13:13;;;;;;;6.03;1.50;;;;;;;12.82;100.00;102022.00;5245275;28;20071;-70
2023/06/04 00:15:43;;;;;;;2.88;1.35;;;;;;;12.73;100.00;102018.38;5226822;28;20020;-70
2023/06/04 00:18:14;;;;;;;2.03;1.33;;;;;;;12.63;100.00;102028.34;5231414;28;20400;-70
2023/06/04 00:20:44;;;;;;;3.28;1.20;;;;;;;12.63;100.00;102023.81;5239036;28;20021;-70
2023/06/04 00:23:15;;;;;;;16.42;1.80;;;;;;;12.62;100.00;102023.97;5229318;28;20025;-70
2023/06/04 00:25:45;;;;;;;3.58;1.50;;;;;;;12.63;100.00;102015.75;5236763;28;20103;-70
2023/06/04 00:28:15;;;;;;;4.15;1.33;;;;;;;12.62;100.00;102016.75;5237646;28;20154;-70
2023/06/04 00:30:46;;;;;;;2.92;1.35;;;;;;;12.59;100.00;102021.56;5237501;28;20646;-70
2023/06/04 00:33:16;;;;;;;8.80;1.40;;;;;;;12.54;100.00;102022.03;5243636;28;20028;-70
2023/06/04 00:35:47;;;;;;;6.03;1.63;;;;;;;12.46;100.00;102023.78;5244121;28;20064;-69
2023/06/04 00:38:17;;;;;;;4.78;1.50;;;;;;;12.44;100.00;102022.06;5244666;28;20028;-69
2023/06/04 00:40:48;;;;;;;2.67;1.50;;;;;;;12.41;100.00;102026.94;5244255;28;20016;-69
2023/06/04 00:43:19;;;;;;;4.18;1.80;;;;;;;12.38;100.00;102020.00;5244661;28;20449;-69
2023/06/04 00:45:50;;;;;;;3.90;1.70;;;;;;;12.32;100.00;102020.59;5243954;28;20485;-69
2023/06/04 00:48:21;;;;;;;4.72;1.67;;;;;;;12.28;100.00;102024.56;5244448;28;20025;-70
2023/06/04 00:50:51;;;;;;;5.20;1.50;;;;;;;12.26;100.00;102018.50;5238410;28;20021;-70
2023/06/04 00:53:24;;;;;;;6.78;1.63;;;;;;;12.25;100.00;102015.94;5237029;28;20524;-70
2023/06/04 00:55:54;;;;;;;4.40;1.80;;;;;;;12.24;100.00;102025.00;5244008;28;20039;-70
2023/06/04 00:58:25;;;;;;;9.13;2.00;;;;;;;12.21;100.00;102022.63;5244234;28;20029;-69
2023/06/04 01:00:59;;;;;;;8.93;1.80;;;;;;;12.15;100.00;102022.25;5244862;28;20103;-69
2023/06/04 01:03:34;;;;;;;2.95;1.85;;;;;;;12.12;100.00;102011.75;5244597;28;20027;-69
2023/06/04 01:06:32;;;;;;;6.05;2.33;;;;;;;12.07;100.00;102014.03;5232779;28;20036;-69
2023/06/04 01:09:04;;;;;;;4.60;1.63;;;;;;;12.08;100.00;102018.44;5223915;28;20035;-70
2023/06/04 01:11:36;;;;;;;6.43;2.10;;;;;;;12.08;100.00;102023.81;5237451;28;20708;-69
2023/06/04 01:14:08;;;;;;;4.18;2.00;;;;;;;12.05;100.00;102018.75;5234084;28;20025;-70
2023/06/04 01:16:48;;;;;;;5.60;2.05;;;;;;;12.01;100.00;102019.19;5243567;28;20028;-69
2023/06/04 01:19:47;;;;;;;6.43;2.30;;;;;;;11.97;100.00;102024.00;5244268;28;20574;-69
2023/06/04 01:22:46;;;;;;;8.90;2.05;;;;;;;11.95;100.00;102026.00;5231191;28;20086;-69
2023/06/04 01:25:33;;;;;;;11.63;2.75;;;;;;;11.91;100.00;102030.81;5232256;28;20028;-70
2023/06/04 01:28:04;;;;;;;4.95;2.17;;;;;;;11.88;100.00;102022.19;5243694;28;20033;-70
2023/06/04 01:30:42;;;;;;;4.63;2.20;;;;;;;11.87;100.00;102025.88;5244179;28;20058;-70
2023/06/04 01:33:15;;;;;;;3.03;1.77;;;;;;;11.84;100.00;102020.75;5244127;28;20020;-70
2023/06/04 01:35:46;;;;;;;9.20;2.30;;;;;;;11.82;100.00;102033.53;5243532;28;20028;-69
2023/06/04 01:38:16;;;;;;;3.90;2.17;;;;;;;11.79;100.00;102023.00;5244186;28;20085;-69
2023/06/04 01:40:47;;;;;;;4.32;2.08;;;;;;;11.78;100.00;102019.47;5243933;28;20021;-71
2023/06/04 01:43:18;;;;;;;5.13;2.20;;;;;;;11.77;100.00;102027.69;5241973;28;20535;-69
2023/06/04 01:45:49;;;;;;;3.78;2.20;;;;;;;11.76;100.00;102023.31;5243422;28;20596;-70
2023/06/04 01:48:21;;;;;;;5.38;1.90;;;;;;;11.74;100.00;102027.97;5243825;28;20024;-70
2023/06/04 01:50:51;;;;;;;6.07;2.33;;;;;;;11.72;100.00;102027.28;5243842;28;20370;-70
2023/06/04 01:53:22;;;;;;;3.70;2.30;;;;;;;11.72;100.00;102022.75;5244419;28;20035;-70
2023/06/04 01:55:52;;;;;;;10.38;2.38;;;;;;;11.71;100.00;102022.91;5243134;28;20039;-69
2023/06/04 01:58:26;;;;;;;4.07;2.35;;;;;;;11.67;100.00;102020.50;5243823;28;20033;-70
2023/06/04 02:01:00;;;;;;;7.22;2.72;;;;;;;11.65;100.00;102021.66;5244060;28;20016;-70
2023/06/04 02:03:36;;;;;;;3.97;2.08;;;;;;;11.64;100.00;102018.09;5243843;28;20016;-70
2023/06/04 02:06:07;;;;;;;5.00;2.75;;;;;;;11.62;100.00;102016.56;5243142;28;20106;-70
2023/06/04 02:08:38;;;;;;;9.95;2.50;;;;;;;11.61;100.00;102014.88;5243785;28;20525;-70
2023/06/04 02:11:09;;;;;;;7.72;2.60;;;;;;;11.58;100.00;102017.84;5243814;28;20134;-70
2023/06/04 02:13:39;;;;;;;6.32;2.08;;;;;;;11.57;100.00;102021.50;5243756;28;20514;-70
2023/06/04 02:16:10;;;;;;;7.78;2.33;;;;;;;11.55;100.00;102018.13;5243437;28;20024;-69
2023/06/04 02:18:41;;;;;;;11.25;3.08;;;;;;;11.53;100.00;102018.25;5243246;28;20035;-69
2023/06/04 02:21:12;;;;;;;4.65;2.17;;;;;;;11.53;100.00;102015.56;5234577;28;20394;-69
2023/06/04 02:23:42;;;;;;;4.90;2.17;;;;;;;11.53;100.00;102012.03;5236300;28;20024;-69
2023/06/04 02:26:13;;;;;;;5.45;2.60;;;;;;;11.53;100.00;102014.72;5243173;28;20039;-69
2023/06/04 02:28:43;;;;;;;5.57;2.50;;;;;;;11.48;100.00;102020.53;5243656;28;20416;-69
2023/06/04 02:31:14;;;;;;;8.18;2.42;;;;;;;11.50;100.00;102015.03;5243467;28;20365;-70
2023/06/04 02:33:45;;;;;;;4.15;2.55;;;;;;;11.48;100.00;102014.31;5243789;28;20043;-69
2023/06/04 02:36:17;;;;;;;5.65;2.45;;;;;;;11.46;100.00;102017.16;5242854;28;20394;-69
2023/06/04 02:38:47;;;;;;;7.63;2.70;;;;;;;11.43;100.00;102016.59;5243620;28;20482;-69
2023/06/04 02:41:18;;;;;;;5.15;3.13;;;;;;;11.39;100.00;102022.22;5229833;28;20023;-69
2023/06/04 02:43:48;;;;;;;7.30;2.60;;;;;;;11.38;100.00;102025.06;5243004;28;20031;-69
2023/06/04 02:46:19;;;;;;;8.43;2.67;;;;;;;11.33;100.00;102030.88;5243020;28;20370;-69
2023/06/04 02:48:49;;;;;;;4.82;2.60;;;;;;;11.30;100.00;102022.25;5243178;28;20021;-69
2023/06/04 02:51:20;;;;;;;9.10;2.78;;;;;;;11.29;100.00;102028.59;5243544;28;20027;-69
2023/06/04 02:53:50;;;;;;;7.13;2.75;;;;;;;11.26;100.00;102028.91;5245314;28;20044;-69
2023/06/04 02:56:21;;;;;;;10.32;2.72;;;;;;;11.25;100.00;102027.22;5246382;28;20032;-69
2023/06/04 02:58:55;;;;;;;6.00;2.75;;;;;;;11.25;100.00;102027.22;5246999;28;20024;-69
2023/06/04 03:01:26;;;;;;;5.70;2.45;;;;;;;11.22;100.00;102019.44;5247235;28;20506;-69
2023/06/04 03:03:57;;;;;;;6.05;2.45;;;;;;;11.25;100.00;102021.84;5246904;28;20020;-69
2023/06/04 03:06:29;;;;;;;8.48;2.85;;;;;;;11.25;100.00;102028.06;5246143;28;20439;-69
2023/06/04 03:09:00;;;;;;;6.28;2.30;;;;;;;11.23;100.00;102037.25;5246693;28;20021;-70
2023/06/04 03:11:31;;;;;;;5.70;2.63;;;;;;;11.23;100.00;102038.09;5245341;28;20039;-69
2023/06/04 03:14:01;;;;;;;7.15;2.72;;;;;;;11.18;100.00;102023.38;5235276;28;20028;-69
2023/06/04 03:16:32;;;;;;;4.75;2.42;;;;;;;11.15;100.00;102025.38;5246058;28;20024;-69
2023/06/04 03:19:03;;;;;;;4.45;2.28;;;;;;;11.12;100.00;102027.50;5246417;28;20648;-69
2023/06/04 03:21:34;;;;;;;7.60;2.33;;;;;;;11.06;100.00;102023.53;5237711;28;20017;-69
2023/06/04 03:24:06;;;;;;;5.05;2.58;;;;;;;11.03;100.00;102025.63;5239198;28;20031;-69
2023/06/04 03:26:36;;;;;;;5.13;2.47;;;;;;;10.96;100.00;102020.00;5245853;28;20028;-69
2023/06/04 03:29:07;;;;;;;4.07;2.15;;;;;;;10.96;100.00;102028.03;5246509;28;20079;-69
2023/06/04 03:31:37;;;;;;;4.82;2.22;;;;;;;10.95;100.00;102028.19;5246661;28;20398;-69
2023/06/04 03:34:09;;;;;;;5.13;2.30;;;;;;;10.92;100.00;102026.63;5245287;28;20021;-69
2023/06/04 03:36:39;;;;;;;6.85;2.53;;;;;;;10.91;100.00;102024.94;5245874;28;20031;-69
2023/06/04 03:39:10;;;;;;;6.10;2.70;;;;;;;10.90;100.00;102020.56;5246354;28;20016;-69
2023/06/04 03:41:41;;;;;;;4.00;2.45;;;;;;;10.88;100.00;102023.38;5246483;28;20078;-69
2023/06/04 03:44:14;;;;;;;9.50;2.50;;;;;;;10.88;100.00;102015.31;5246073;28;20020;-69
2023/06/04 03:46:45;;;;;;;4.47;2.45;;;;;;;10.89;100.00;102021.53;5245683;28;20085;-69
2023/06/04 03:49:17;;;;;;;7.38;2.83;;;;;;;10.88;100.00;102027.88;5228322;28;20497;-69
2023/06/04 03:51:47;;;;;;;4.13;2.33;;;;;;;10.89;100.00;102033.13;5246285;28;20505;-69
2023/06/04 03:54:18;;;;;;;5.40;2.58;;;;;;;10.89;100.00;102024.22;5246115;28;20021;-69
2023/06/04 03:56:48;;;;;;;7.78;2.97;;;;;;;10.87;100.00;102035.09;5245158;28;20142;-69
2023/06/04 03:59:19;;;;;;;5.22;2.72;;;;;;;10.83;100.00;102032.81;5246050;28;20413;-69
2023/06/04 04:01:49;;;;;;;7.35;2.42;;;;;;;10.81;100.00;102024.91;5245911;28;20115;-69
2023/06/04 04:04:20;;;;;;;6.35;2.53;;;;;;;10.80;100.00;102030.44;5245325;28;20021;-69
2023/06/04 04:06:51;;;;;;;6.07;2.72;;;;;;;10.79;100.00;102036.78;5244875;28;20496;-69
2023/06/04 04:09:21;;;;;;;5.68;2.42;;;;;;;10.78;100.00;102033.25;5245599;28;20032;-69
2023/06/04 04:11:52;;;;;;;6.30;2.67;;;;;;;10.79;100.00;102034.09;5245930;28;20028;-69
2023/06/04 04:14:22;;;;;;;6.28;3.33;;;;;;;10.79;100.00;102034.09;5245814;28;20598;-69
2023/06/04 04:16:53;;;;;;;4.40;2.47;;;;;;;10.81;100.00;102037.50;5244879;28;20021;-69
2023/06/04 04:19:23;;;;;;;7.20;2.53;;;;;;;10.83;100.00;102038.19;5245419;28;20099;-69
2023/06/04 04:21:54;;;;;;;5.47;3.33;;;;;;;10.87;100.00;102045.00;5235064;28;20025;-69
2023/06/04 04:24:26;;;;;;;7.22;2.63;;;;;;;10.91;100.00;102037.50;5239586;28;20024;-69
2023/06/04 04:26:58;;;;;;;4.25;2.72;;;;;;;10.92;100.00;102042.72;5245037;28;20031;-69
2023/06/04 04:29:32;;;;;;;7.20;3.20;;;;;;;10.96;100.00;102038.78;5245286;28;20026;-69
2023/06/04 04:34:54;;;;;;;6.38;2.58;;;;;;;11.06;100.00;102042.34;5243546;28;20040;-69
2023/06/04 04:37:26;;;;;;;5.28;2.45;;;;;;;11.11;100.00;102039.22;5244556;28;20029;-69
2023/06/04 04:39:57;;;;;;;6.15;2.60;;;;;;;11.16;100.00;102045.03;5236312;28;20386;-69
2023/06/04 04:42:27;;;;;;;8.30;3.40;;;;;;;11.22;100.00;102038.22;5222799;28;20029;-69
2023/06/04 04:44:58;;;;;;;8.02;2.88;;;;;;;11.28;100.00;102040.34;5245304;28;20024;-69
2023/06/04 04:47:28;;;;;;;5.15;2.35;;;;;;;11.36;100.00;102045.88;5241805;28;20020;-69
2023/06/04 04:49:59;;;;;;;6.13;2.60;;;;;;;11.41;100.00;102047.13;5244579;28;20020;-69
2023/06/04 04:52:29;;;;;;;5.53;2.60;;;;;;;11.50;100.00;102045.44;5244340;28;20024;-69
2023/06/04 04:55:00;;;;;;;5.80;2.83;;;;;;;11.59;100.00;102046.41;5244566;28;20021;-69
2023/06/04 04:57:30;;;;;;;8.52;2.65;;;;;;;11.66;100.00;102045.69;5244140;28;20017;-69
2023/06/04 05:00:05;;;;;;;7.63;3.20;;;;;;;11.74;100.00;102050.31;5244729;28;20492;-69
2023/06/04 05:02:36;;;;;;;4.85;3.15;;;;;;;11.81;100.00;102054.16;5245390;28;20712;-69
2023/06/04 05:05:07;;;;;;;7.97;3.20;;;;;;;11.89;100.00;102048.91;5244707;28;20024;-70
2023/06/04 05:07:37;;;;;;;7.18;2.95;;;;;;;11.96;100.00;102053.72;5243987;28;20047;-70
2023/06/04 05:10:08;;;;;;;6.32;3.05;;;;;;;12.01;100.00;102056.84;5244518;28;20428;-69
2023/06/04 05:12:38;;;;;;;6.53;2.70;;;;;;;12.08;100.00;102058.78;5233958;28;20040;-69
2023/06/04 05:15:12;;;;;;;5.82;3.00;;;;;;;12.14;100.00;102058.19;5242296;28;20027;-69
2023/06/04 05:17:43;;;;;;;8.07;3.08;;;;;;;12.22;100.00;102051.22;5243974;28;20024;-70
2023/06/04 05:20:15;;;;;;;5.95;3.50;;;;;;;12.32;100.00;102057.41;5242449;28;20016;-69
2023/06/04 05:22:45;;;;;;;5.03;2.90;;;;;;;12.39;100.00;102053.97;5230566;28;20032;-71
2023/06/04 05:25:16;;;;;;;10.45;3.08;;;;;;;12.47;100.00;102050.53;5244394;28;20385;-70
2023/06/04 05:27:49;;;;;;;10.70;3.40;;;;;;;12.58;100.00;102049.50;5243887;28;20054;-70
2023/06/04 05:30:19;;;;;;;5.15;2.90;;;;;;;12.67;100.00;102054.81;5244248;28;20052;-70
2023/06/04 05:32:50;;;;;;;8.38;3.90;;;;;;;12.76;100.00;102060.31;5240969;28;20109;-70
2023/06/04 05:35:20;;;;;;;9.57;3.40;;;;;;;12.87;100.00;102055.56;5243834;28;20019;-69
2023/06/04 05:40:37;;;;;;;9.40;3.35;;;;;;;13.11;100.00;102065.75;5244109;28;20033;-70
2023/06/04 05:43:07;;;;;;;5.60;2.97;;;;;;;13.25;100.00;102060.84;5244283;28;20020;-70
2023/06/04 05:45:38;;;;;;;8.20;3.28;;;;;;;13.35;100.00;102067.00;5243998;28;20146;-70
2023/06/04 05:48:08;;;;;;;5.28;2.97;;;;;;;13.46;100.00;102062.22;5243932;28;20048;-70
2023/06/04 05:50:39;;;;;;;8.32;3.17;;;;;;;13.56;100.00;102059.44;5244162;28;20021;-70
2023/06/04 05:53:09;;;;;;;5.82;3.38;;;;;;;13.76;100.00;102064.66;5244069;28;20021;-71
2023/06/04 05:55:40;;;;;;;10.50;3.40;;;;;;;13.99;100.00;102063.09;5243847;28;20029;-70
2023/06/04 05:58:10;;;;;;;5.47;3.08;;;;;;;14.49;100.00;102063.22;5244251;28;20028;-70
2023/06/04 06:00:41;;;;;;;8.05;2.90;;;;;;;15.23;100.00;102061.56;5244198;28;20392;-70
2023/06/04 06:03:11;;;;;;;4.45;2.75;;;;;;;16.09;100.00;102064.75;5244414;28;20501;-70
2023/06/04 06:05:43;;;;;;;5.80;2.85;;;;;;;16.95;100.00;102070.19;5243353;28;20028;-70
2023/06/04 06:08:14;;;;;;;6.97;2.65;;;;;;;17.65;100.00;102071.03;5244054;28;20474;-70
2023/06/04 06:10:45;;;;;;;4.70;2.97;;;;;;;18.17;100.00;102076.47;5244026;28;20028;-70
2023/06/04 06:13:15;;;;;;;7.18;2.92;;;;;;;18.63;100.00;102077.13;5244032;28;20516;-70
2023/06/04 06:15:48;;;;;;;4.68;2.33;;;;;;;19.02;100.00;102072.38;5243619;28;20031;-71
2023/06/04 06:18:18;;;;;;;3.83;2.38;;;;;;;19.45;100.00;102073.22;5230317;28;20048;-71
2023/06/04 06:20:49;;;;;;;4.43;2.45;;;;;;;19.79;100.00;102082.56;5232763;28;20092;-71
2023/06/04 06:23:21;;;;;;;4.57;2.30;;;;;;;19.98;100.00;102087.34;5228084;28;20096;-71
2023/06/04 06:25:53;;;;;;;5.47;2.58;;;;;;;20.13;100.00;102081.75;5236420;28;20071;-71
2023/06/04 06:28:23;;;;;;;8.80;3.00;;;;;;;20.32;100.00;102086.47;5245324;28;20025;-71
2023/06/04 06:30:54;;;;;;;7.78;2.90;;;;;;;20.52;100.00;102089.34;5247737;28;20028;-72
2023/06/04 06:33:25;;;;;;;5.32;2.80;;;;;;;20.90;100.00;102095.19;5248320;28;20182;-71
2023/06/04 06:35:55;;;;;;;3.88;2.63;;;;;;;21.18;100.00;102091.47;5247102;28;20173;-71
2023/06/04 06:38:26;;;;;;;7.72;3.05;;;;;;;21.41;100.00;102093.88;5247883;28;20039;-71
2023/06/04 06:40:57;;;;;;;7.65;2.45;;;;;;;21.68;100.00;102094.72;5247829;28;20111;-71
2023/06/04 06:43:27;;;;;;;5.88;2.53;;;;;;;21.86;100.00;102096.84;5247511;28;20044;-71
2023/06/04 06:45:58;;;;;;;3.25;2.53;;;;;;;21.98;86.25;102093.22;5246960;28;20036;-71
2023/06/04 06:48:28;;;;;;;2.38;2.10;;;;;;;21.89;87.97;102097.25;5247534;28;20425;-72
2023/06/04 06:50:59;;;;;;;6.55;2.20;;;;;;;21.90;87.62;102098.09;5247531;28;20021;-71
2023/06/04 06:53:29;;;;;;;5.00;2.30;;;;;;;22.12;92.45;102107.75;5247316;28;20587;-71
2023/06/04 06:56:00;;;;;;;5.35;2.38;;;;;;;22.53;91.69;102106.63;5246508;28;20121;-71
2023/06/04 06:58:30;;;;;;;4.07;2.15;;;;;;;22.83;87.57;102114.28;5247433;28;20116;-71
2023/06/04 07:01:01;;;;;;;3.17;2.03;;;;;;;22.97;79.79;102111.31;5247360;28;20032;-71
2023/06/04 07:03:32;;;;;;;4.57;2.10;;;;;;;22.94;71.42;102117.25;5247427;28;20042;-71
2023/06/04 07:06:03;;;;;;;4.95;2.33;;;;;;;22.97;71.07;102116.78;5246604;28;20755;-71
2023/06/04 07:08:33;;;;;;;4.70;1.83;;;;;;;23.08;71.49;102117.16;5247185;28;20052;-71
2023/06/04 07:11:04;;;;;;;6.68;2.05;;;;;;;23.07;71.72;102120.94;5247092;28;20107;-71
2023/06/04 07:13:35;;;;;;;3.85;2.33;;;;;;;23.34;69.93;102110.69;5247146;28;20035;-71
2023/06/04 07:16:06;;;;;;;3.28;2.00;;;;;;;23.59;64.92;102114.28;5246557;28;20024;-73
2023/06/04 07:18:36;;;;;;;3.22;2.35;;;;;;;23.67;65.28;102126.91;5246178;28;20025;-71
2023/06/04 07:21:07;;;;;;;4.40;2.00;;;;;;;23.51;62.70;102123.63;5237605;28;20505;-71
2023/06/04 07:23:37;;;;;;;6.35;2.10;;;;;;;23.58;61.12;102120.00;5241961;28;20027;-72
2023/06/04 07:26:08;;;;;;;3.70;1.83;;;;;;;23.62;65.49;102123.97;5246302;28;20539;-71
2023/06/04 07:28:38;;;;;;;5.00;2.45;;;;;;;23.66;66.29;102125.25;5247188;28;20469;-71
2023/06/04 07:31:09;;;;;;;5.97;2.00;;;;;;;23.83;66.01;102120.03;5246425;28;20036;-72
2023/06/04 07:33:43;;;;;;;2.53;1.80;;;;;;;24.13;59.93;102118.28;5247113;28;20040;-72
2023/06/04 07:36:14;;;;;;;4.85;1.50;;;;;;;24.26;61.33;102120.91;5246135;28;20032;-71
2023/06/04 07:38:44;;;;;;;8.57;1.92;;;;;;;24.35;58.83;102115.09;5246647;28;20554;-72
2023/06/04 07:41:14;;;;;;;2.97;1.80;;;;;;;24.34;56.70;102117.00;5245466;28;20020;-72
2023/06/04 07:43:45;;;;;;;5.10;2.10;;;;;;;24.52;61.35;102108.00;5246579;28;20037;-72
2023/06/04 07:46:18;;;;;;;5.28;2.13;;;;;;;24.74;57.27;102119.34;5245938;28;20024;-71
2023/06/04 07:48:48;;;;;;;6.13;1.83;;;;;;;24.80;52.19;102110.22;5246266;28;20028;-72
2023/06/04 07:51:19;;;;;;;5.03;2.00;;;;;;;24.93;56.53;102115.50;5246384;28;20444;-71
2023/06/04 07:53:50;;;;;;;4.25;1.67;;;;;;;25.03;54.35;102114.94;5246520;28;20023;-71
2023/06/04 07:56:21;;;;;;;5.75;1.80;;;;;;;25.21;51.41;102114.94;5245452;28;20032;-72
2023/06/04 07:58:51;;;;;;;2.25;1.52;;;;;;;25.27;54.17;102105.78;5246376;28;21237;-71
2023/06/04 08:01:23;;;;;;;4.78;1.70;;;;;;;25.31;54.20;102108.91;5246360;28;20025;-71
2023/06/04 08:03:54;;;;;;;4.97;1.70;;;;;;;25.46;50.97;102113.97;5246260;28;20385;-71
2023/06/04 08:06:26;;;;;;;3.53;1.60;;;;;;;25.68;51.82;102116.97;5245254;28;20540;-72
2023/06/04 08:08:57;;;;;;;2.63;1.40;;;;;;;25.89;49.24;102110.94;5242224;28;20653;-72
2023/06/04 08:11:27;;;;;;;2.50;1.58;;;;;;;26.00;47.39;102115.59;5245018;28;20019;-71
2023/06/04 08:13:57;;;;;;;5.72;1.80;;;;;;;26.19;48.50;102113.56;5245431;28;20026;-72
2023/06/04 08:16:28;;;;;;;4.40;1.50;;;;;;;26.16;48.49;102114.06;5244709;28;20401;-72
2023/06/04 08:18:58;;;;;;;4.30;1.50;;;;;;;26.30;45.39;102109.13;5245169;28;20024;-72
2023/06/04 08:21:29;;;;;;;2.63;1.45;;;;;;;26.48;45.41;102114.53;5239572;28;20021;-72
2023/06/04 08:24:00;;;;;;;4.28;1.48;;;;;;;26.13;40.91;102120.03;5239721;28;20792;-72
2023/06/04 08:26:30;;;;;;;6.25;1.50;;;;;;;25.77;40.75;102121.09;5243956;28;20025;-72
2023/06/04 08:29:03;;;;;;;4.07;1.50;;;;;;;25.49;41.66;102122.53;5245166;28;20460;-72
2023/06/04 08:31:34;;;;;;;2.55;1.48;;;;;;;25.71;40.28;102122.00;5244381;28;20020;-72
2023/06/04 08:34:05;;;;;;;1.70;1.02;;;;;;;25.62;42.96;102121.50;5244842;28;20020;-73
2023/06/04 08:36:35;;;;;;;3.38;1.50;;;;;;;25.75;44.73;102117.72;5226369;28;20017;-72
2023/06/04 08:39:06;;;;;;;3.25;1.45;;;;;;;26.04;44.14;102125.03;5244826;28;20016;-72
2023/06/04 08:41:55;;;;;;;4.55;1.67;;;;;;;26.22;43.44;102124.09;5244912;28;20066;-72
2023/06/04 08:44:27;;;;;;;4.00;1.40;;;;;;;26.49;42.88;102120.88;5244666;28;20596;-72
2023/06/04 08:47:06;;;;;;;4.95;1.55;;;;;;;26.51;39.25;102126.97;5244155;28;20401;-72
2023/06/04 08:49:40;;;;;;;1.95;1.20;;;;;;;26.60;40.19;102126.34;5240475;28;20031;-72
2023/06/04 08:52:11;;;;;;;6.20;1.37;;;;;;;26.57;37.14;102117.75;5239200;28;20531;-72
2023/06/04 08:54:41;;;;;;;5.70;1.50;;;;;;;26.48;39.45;102125.53;5244284;28;20139;-73
2023/06/04 08:57:12;;;;;;;3.38;1.10;;;;;;;26.60;42.40;102129.09;5243687;28;20017;-72
2023/06/04 08:59:43;;;;;;;2.15;1.20;;;;;;;26.89;41.69;102129.16;5244232;28;20027;-72
2023/06/04 09:02:14;;;;;;;3.25;1.52;;;;;;;27.13;39.86;102123.59;5243919;28;20539;-72
2023/06/04 09:04:46;;;;;;;6.32;1.52;;;;;;;27.39;39.54;102128.47;5243875;28;20028;-72
2023/06/04 09:07:17;;;;;;;5.22;1.60;;;;;;;27.27;37.27;102131.31;5238253;28;20021;-72
2023/06/04 09:09:48;;;;;;;3.90;1.30;;;;;;;27.17;37.41;102131.13;5243430;28;20028;-72
2023/06/04 09:12:24;;;;;;;2.75;1.13;;;;;;;26.94;35.19;102129.25;5243950;28;20016;-72
2023/06/04 09:14:54;;;;;;;4.65;1.00;;;;;;;26.85;35.58;102127.94;5242011;28;20221;-73
2023/06/04 09:17:25;;;;;;;4.03;1.30;;;;;;;26.89;40.43;102126.38;5242450;28;20028;-73
2023/06/04 09:19:55;;;;;;;3.28;1.20;;;;;;;27.03;38.82;102122.28;5242159;28;20021;-72
2023/06/04 09:22:42;;;;;;;4.30;1.48;;;;;;;27.42;40.36;102127.16;5238171;28;20545;-72
2023/06/04 09:25:25;;;;;;;7.35;1.60;;;;;;;27.38;36.64;102134.25;5235980;28;20104;-72
2023/06/04 09:28:05;;;;;;;2.33;1.20;;;;;;;27.03;35.75;102133.28;5234795;28;20747;-72
2023/06/04 09:30:36;;;;;;;5.60;1.30;;;;;;;26.95;37.46;102122.66;5240216;28;20063;-72
2023/06/04 09:33:08;;;;;;;8.45;1.42;;;;;;;26.95;34.51;102128.16;5247160;28;20030;-73
2023/06/04 09:35:38;;;;;;;2.67;1.23;;;;;;;27.04;38.12;102136.88;5246535;28;20594;-72
2023/06/04 09:38:10;;;;;;;4.13;1.10;;;;;;;26.83;34.60;102138.38;5242866;28;20111;-72
2023/06/04 09:40:41;;;;;;;7.20;1.40;;;;;;;26.70;35.98;102133.97;5243533;28;20024;-72
2023/06/04 09:43:22;;;;;;;3.50;1.33;;;;;;;26.53;34.19;102131.16;5241916;28;20473;-72
2023/06/04 09:45:52;;;;;;;1.40;1.00;;;;;;;26.66;37.50;102124.56;5238883;28;20059;-72
2023/06/04 09:48:23;;;;;;;3.25;1.23;;;;;;;26.91;37.91;102121.50;5243272;28;20016;-72
2023/06/04 09:50:53;;;;;;;2.42;1.10;;;;;;;27.04;36.27;102114.84;5242599;28;20031;-72
2023/06/04 09:53:26;;;;;;;2.35;1.30;;;;;;;27.07;35.05;102119.88;5243150;28;20032;-72
2023/06/04 09:55:58;;;;;;;2.97;1.10;;;;;;;26.89;34.31;102122.81;5243032;28;20024;-72
2023/06/04 09:58:29;;;;;;;5.72;1.60;;;;;;;27.05;35.34;102120.09;5243303;28;20103;-72
2023/06/04 10:01:02;;;;;;;9.50;1.27;;;;;;;27.13;37.83;102107.91;5243581;28;20023;-73
2023/06/04 10:03:35;;;;;;;5.18;1.33;;;;;;;27.35;35.00;102122.63;5241775;28;20163;-72
2023/06/04 10:06:06;;;;;;;2.50;1.17;;;;;;;27.57;37.38;102117.25;5249067;28;20385;-72
2023/06/04 10:08:41;;;;;;;4.63;1.10;;;;;;;27.24;31.88;102128.19;5246190;28;20020;-72
2023/06/04 10:11:13;;;;;;;2.60;1.27;;;;;;;27.05;33.89;102106.31;5247076;28;20037;-73
2023/06/04 10:14:11;;;;;;;4.85;1.15;;;;;;;26.89;35.76;102120.06;5246734;28;20013;-72
2023/06/04 10:16:42;;;;;;;3.33;1.48;;;;;;;26.56;34.95;102118.84;5243425;28;20025;-72
2023/06/04 10:19:14;;;;;;;7.68;1.70;;;;;;;26.13;33.36;102114.53;5248389;28;20397;-72
2023/06/04 10:21:45;;;;;;;2.42;1.20;;;;;;;26.32;37.03;102115.25;5241909;28;20100;-72
2023/06/04 10:24:16;;;;;;;7.32;1.50;;;;;;;26.48;36.79;102114.53;5242809;28;21014;-72
2023/06/04 10:26:47;;;;;;;13.52;1.95;;;;;;;26.44;33.67;102118.00;5246398;28;20031;-72
2023/06/04 10:29:18;;;;;;;3.03;1.20;;;;;;;26.48;37.30;102106.28;5246839;28;20533;-72
2023/06/04 10:31:54;;;;;;;3.88;1.30;;;;;;;26.78;39.82;102108.84;5247043;28;20070;-72
2023/06/04 10:34:26;;;;;;;5.00;1.45;;;;;;;26.99;36.62;102110.06;5246769;28;20489;-72
2023/06/04 10:36:57;;;;;;;2.10;1.20;;;;;;;26.89;33.41;102104.38;5228288;28;20025;-72
2023/06/04 10:39:29;;;;;;;4.85;1.63;;;;;;;26.95;38.90;102099.78;5246983;28;20051;-72
2023/06/04 10:42:02;;;;;;;2.83;1.27;;;;;;;27.09;36.23;102096.53;5246933;28;20016;-72
2023/06/04 10:44:45;;;;;;;7.57;1.40;;;;;;;27.17;35.53;102106.31;5241911;28;20044;-72
2023/06/04 10:47:37;;;;;;;4.03;1.45;;;;;;;27.16;37.48;102103.78;5244986;28;20029;-72
2023/06/04 10:50:10;;;;;;;3.75;1.02;;;;;;;27.13;36.60;102102.38;5246297;28;20021;-72
2023/06/04 10:52:52;;;;;;;9.93;1.52;;;;;;;26.78;34.44;102108.84;5243113;28;20017;-72
2023/06/04 10:55:23;;;;;;;3.33;1.58;;;;;;;26.68;34.87;102111.38;5245636;28;20036;-72
2023/06/04 10:57:55;;;;;;;4.60;1.30;;;;;;;26.60;35.21;102104.31;5245910;28;20028;-72
2023/06/04 11:00:56;;;;;;;3.45;1.20;;;;;;;26.75;35.05;102102.97;5241898;28;20048;-72
2023/06/04 11:03:37;;;;;;;2.22;1.20;;;;;;;26.67;34.11;102104.22;5245420;28;20028;-72
2023/06/04 11:06:27;;;;;;;8.80;1.38;;;;;;;26.79;36.08;102091.22;5245279;28;20039;-72
2023/06/04 11:09:17;;;;;;;17.95;1.50;;;;;;;26.83;32.16;102100.69;5246295;28;20031;-73
2023/06/04 11:11:57;;;;;;;6.43;1.35;;;;;;;26.79;32.55;102104.16;5243183;28;20077;-72
2023/06/04 11:14:27;;;;;;;4.43;1.42;;;;;;;26.64;32.72;102101.09;5246297;28;20074;-72
2023/06/04 11:17:09;;;;;;;1.92;1.13;;;;;;;26.67;32.01;102095.94;5245327;28;20032;-72
2023/06/04 11:19:40;;;;;;;4.72;1.27;;;;;;;26.82;34.75;102087.16;5246085;28;20047;-72
2023/06/04 11:22:12;;;;;;;2.60;1.48;;;;;;;27.01;35.84;102080.38;5232760;28;20438;-72
2023/06/04 11:24:42;;;;;;;5.40;1.20;;;;;;;26.92;32.96;102083.78;5245774;28;20072;-72
2023/06/04 11:27:13;;;;;;;6.65;1.40;;;;;;;26.64;34.26;102088.16;5238619;28;20023;-72
2023/06/04 11:29:50;;;;;;;1.65;1.17;;;;;;;26.72;33.85;102087.78;5246128;28;20032;-72
2023/06/04 11:32:24;;;;;;;5.95;1.60;;;;;;;27.00;36.10;102081.44;5246035;28;20013;-72
2023/06/04 11:35:13;;;;;;;20.95;2.33;;;;;;;27.19;36.22;102078.53;5246256;28;20099;-72
2023/06/04 11:37:54;;;;;;;8.13;1.70;;;;;;;27.23;35.39;102085.22;5242776;28;20051;-72
2023/06/04 11:40:26;;;;;;;7.95;1.23;;;;;;;27.38;35.36;102085.47;5245449;28;20021;-73
2023/06/04 11:42:57;;;;;;;3.83;1.35;;;;;;;27.55;32.89;102074.47;5245855;28;20077;-73
2023/06/04 11:45:30;;;;;;;4.78;1.50;;;;;;;27.60;34.91;102072.63;5245051;28;20051;-72
2023/06/04 11:48:01;;;;;;;2.15;1.55;;;;;;;27.43;32.76;102068.22;5245229;28;20031;-72